Time;durP1;ratioP1;P1;durP2;ratioP2;P2;SDS_P1;SDS_P2;PMS_P1;PMS_P2;Temp;Humidity;BMP_temperature;BMP_pressure;BME280_temperature;BME280_humidity;BME280_pressure;Samples;Min_cycle;Max_cycle;Signal;HPM_P1;HPM_P2
2021/10/26 00:09:24;;;;;;;13.57;6.15;;;11.80;99.90;;;;;;20423024;28;20059;-43
2021/10/26 00:19:25;;;;;;;15.23;7.15;;;11.70;99.90;;;;;;20418889;28;20147;-43
2021/10/26 00:29:26;;;;;;;15.38;5.38;;;11.70;99.90;;;;;;20380546;28;20049;-43
2021/10/26 00:39:27;;;;;;;16.42;6.93;;;11.80;99.90;;;;;;20422382;28;20522;-43
2021/10/26 00:49:28;;;;;;;15.65;6.35;;;11.90;99.90;;;;;;20421156;28;20039;-43
2021/10/26 00:59:29;;;;;;;17.13;6.60;;;11.90;99.90;;;;;;20427845;28;20047;-43
2021/10/26 01:09:31;;;;;;;15.75;6.65;;;12.00;99.90;;;;;;20411759;28;20047;-43
2021/10/26 01:19:45;;;;;;;25.45;6.50;;;11.90;99.90;;;;;;20397743;28;20063;-43
2021/10/26 01:29:47;;;;;;;17.38;6.53;;;11.90;99.90;;;;;;20421774;28;20043;-43
2021/10/26 01:39:50;;;;;;;16.67;6.53;;;11.90;99.90;;;;;;20414801;28;20080;-43
2021/10/26 01:49:52;;;;;;;15.45;6.30;;;11.80;99.90;;;;;;20417364;28;20035;-43
2021/10/26 01:59:55;;;;;;;15.07;6.68;;;11.70;99.90;;;;;;20405626;28;20468;-43
2021/10/26 02:09:57;;;;;;;16.67;5.93;;;11.70;99.90;;;;;;20426921;28;20039;-43
2021/10/26 02:19:59;;;;;;;21.10;5.53;;;11.60;99.90;;;;;;20386792;29;20131;-43
2021/10/26 02:30:00;;;;;;;15.82;6.50;;;11.50;99.90;;;;;;20426540;28;20699;-43
2021/10/26 02:40:04;;;;;;;14.70;6.10;;;11.30;99.90;;;;;;20420850;28;20059;-43
2021/10/26 02:50:06;;;;;;;12.07;4.85;;;11.10;99.90;;;;;;20438300;28;20051;-43
2021/10/26 03:00:10;;;;;;;14.82;5.47;;;11.20;99.90;;;;;;20419821;28;20070;-43
2021/10/26 03:10:15;;;;;;;11.65;5.57;;;11.10;99.90;;;;;;20422314;28;20290;-43
2021/10/26 03:20:16;;;;;;;17.52;6.28;;;11.10;99.90;;;;;;20403295;28;20043;-43
2021/10/26 03:30:17;;;;;;;20.20;6.50;;;11.00;99.90;;;;;;20388884;29;20028;-43
2021/10/26 03:40:18;;;;;;;15.52;6.32;;;11.20;99.90;;;;;;20422724;28;20063;-43
2021/10/26 03:50:20;;;;;;;17.77;6.10;;;11.10;99.90;;;;;;20404774;28;20066;-43
2021/10/26 04:00:21;;;;;;;15.20;5.53;;;11.10;99.90;;;;;;20416981;28;20438;-43
2021/10/26 04:10:35;;;;;;;21.48;7.15;;;11.00;99.90;;;;;;20417925;28;20059;-43
2021/10/26 04:20:36;;;;;;;16.98;5.93;;;10.90;99.90;;;;;;20413670;28;20070;-43
2021/10/26 04:30:38;;;;;;;18.30;6.30;;;10.90;99.90;;;;;;20422858;28;20047;-43
2021/10/26 04:40:39;;;;;;;24.85;5.88;;;10.80;99.90;;;;;;20386476;28;20051;-43
2021/10/26 04:50:40;;;;;;;18.40;6.65;;;10.90;99.90;;;;;;20425114;28;20035;-43
2021/10/26 05:00:41;;;;;;;14.18;5.65;;;10.80;99.90;;;;;;20426120;28;20059;-43
2021/10/26 05:10:42;;;;;;;14.35;6.30;;;10.80;99.90;;;;;;20409001;28;20518;-43
2021/10/26 05:20:46;;;;;;;14.50;6.07;;;10.70;99.90;;;;;;20394290;28;20043;-43
2021/10/26 05:30:47;;;;;;;17.10;6.25;;;10.80;99.90;;;;;;20424717;28;20052;-43
2021/10/26 05:40:48;;;;;;;15.25;6.05;;;10.70;99.90;;;;;;20411797;28;20047;-43
2021/10/26 05:50:50;;;;;;;15.20;5.13;;;10.70;99.90;;;;;;20413787;28;20505;-43
2021/10/26 06:00:51;;;;;;;12.63;6.00;;;10.60;99.90;;;;;;20414618;28;20055;-43
2021/10/26 06:10:57;;;;;;;10.10;5.18;;;10.60;99.90;;;;;;20410476;29;20054;-43
2021/10/26 06:20:58;;;;;;;13.98;6.28;;;10.50;99.90;;;;;;20411875;28;20064;-43
2021/10/26 06:30:59;;;;;;;14.00;6.25;;;10.50;99.90;;;;;;20413355;29;20062;-43
2021/10/26 06:41:00;;;;;;;22.10;5.68;;;10.50;99.90;;;;;;20411541;28;20060;-43
2021/10/26 06:51:02;;;;;;;21.00;6.25;;;10.50;99.90;;;;;;20414749;28;20136;-43
2021/10/26 07:01:08;;;;;;;13.05;4.57;;;10.30;99.90;;;;;;20433898;28;20103;-43
2021/10/26 07:11:09;;;;;;;9.88;4.22;;;10.30;99.90;;;;;;20413909;28;20137;-43
2021/10/26 07:21:12;;;;;;;19.73;6.55;;;10.30;99.90;;;;;;20415126;29;20533;-43
2021/10/26 07:31:15;;;;;;;16.63;5.55;;;10.20;99.90;;;;;;20424943;28;20052;-43
2021/10/26 07:41:16;;;;;;;15.98;5.47;;;10.30;99.90;;;;;;20414090;28;20070;-43
2021/10/26 07:51:17;;;;;;;13.93;5.25;;;10.30;99.90;;;;;;20433624;28;20039;-43
2021/10/26 08:01:18;;;;;;;14.00;6.00;;;10.50;99.90;;;;;;20421856;28;20051;-43
2021/10/26 08:11:19;;;;;;;14.35;6.30;;;10.80;99.90;;;;;;20412970;28;20039;-43
2021/10/26 08:21:21;;;;;;;13.45;5.57;;;11.00;99.90;;;;;;20414806;28;20094;-43
2021/10/26 08:31:30;;;;;;;9.60;4.93;;;11.10;99.90;;;;;;20417746;28;20043;-43
2021/10/26 08:41:38;;;;;;;9.90;4.03;;;11.20;99.90;;;;;;20407985;28;20070;-43
2021/10/26 08:51:45;;;;;;;7.95;3.72;;;11.20;99.90;;;;;;20418288;28;20043;-43
2021/10/26 09:01:47;;;;;;;13.18;4.45;;;11.40;99.90;;;;;;20416820;28;20040;-44
2021/10/26 09:22:18;;;;;;;12.65;4.85;;;11.70;99.90;;;;;;20421820;28;20063;-44
2021/10/26 09:32:21;;;;;;;12.55;5.63;;;11.70;99.90;;;;;;20399479;28;20386;-43
2021/10/26 09:42:49;;;;;;;15.93;7.40;;;11.80;99.90;;;;;;20393227;28;20059;-44
2021/10/26 09:53:01;;;;;;;12.03;5.40;;;12.00;99.90;;;;;;20408055;29;20062;-43
2021/10/26 10:03:28;;;;;;;16.58;6.38;;;12.00;99.90;;;;;;20399148;29;20044;-44
2021/10/26 10:13:29;;;;;;;16.70;6.47;;;12.30;99.90;;;;;;20429587;28;20827;-43
2021/10/26 10:23:33;;;;;;;13.25;5.95;;;12.20;99.90;;;;;;20428846;28;20482;-44
2021/10/26 10:33:34;;;;;;;14.45;5.28;;;12.30;99.90;;;;;;20423423;28;20063;-44
2021/10/26 10:43:36;;;;;;;9.25;4.75;;;12.20;99.90;;;;;;20416296;28;20434;-43
2021/10/26 10:53:38;;;;;;;12.88;5.68;;;12.30;99.90;;;;;;20428033;28;20066;-44
2021/10/26 11:03:39;;;;;;;14.32;6.22;;;12.40;99.90;;;;;;20442356;28;20050;-43
2021/10/26 11:13:40;;;;;;;13.40;6.85;;;12.50;99.90;;;;;;20411012;28;20040;-44
2021/10/26 11:23:44;;;;;;;19.45;7.70;;;12.60;99.90;;;;;;20424630;28;20074;-43
2021/10/26 11:33:54;;;;;;;18.55;7.68;;;12.80;99.90;;;;;;20418255;28;20050;-44
2021/10/26 11:44:01;;;;;;;14.23;6.18;;;13.60;99.90;;;;;;20426797;28;20059;-43
2021/10/26 11:54:15;;;;;;;20.03;6.00;;;13.60;99.90;;;;;;20438615;28;20051;-44
2021/10/26 12:04:20;;;;;;;11.30;3.70;;;13.50;99.90;;;;;;20429006;28;20066;-43
2021/10/26 12:14:36;;;;;;;6.82;2.33;;;13.70;99.90;;;;;;20419130;28;20039;-43
2021/10/26 12:24:45;;;;;;;6.85;3.05;;;13.80;99.90;;;;;;20445943;28;20406;-43
2021/10/26 12:34:49;;;;;;;6.40;2.40;;;13.70;99.90;;;;;;20412427;28;20032;-44
2021/10/26 12:44:53;;;;;;;5.28;2.53;;;13.80;99.90;;;;;;20415635;28;20051;-43
2021/10/26 12:54:58;;;;;;;6.10;2.15;;;13.90;99.90;;;;;;20412975;28;20039;-43
2021/10/26 13:05:03;;;;;;;11.13;3.20;;;14.20;99.90;;;;;;20415044;28;20051;-44
2021/10/26 13:15:12;;;;;;;3.97;1.92;;;14.20;99.90;;;;;;20423715;28;20056;-43
2021/10/26 13:25:14;;;;;;;5.93;1.60;;;14.00;99.90;;;;;;20420105;28;20434;-44
2021/10/26 13:35:15;;;;;;;3.25;1.40;;;14.00;99.90;;;;;;20408171;28;20053;-44
2021/10/26 13:45:16;;;;;;;2.35;1.20;;;14.90;99.90;;;;;;20388111;28;20051;-44
2021/10/26 13:55:17;;;;;;;4.50;2.58;;;14.90;99.90;;;;;;20420732;28;20063;-43
2021/10/26 14:05:18;;;;;;;1.38;0.40;;;14.60;99.90;;;;;;20429306;28;20048;-44
2021/10/26 14:15:19;;;;;;;4.40;0.40;;;14.50;99.90;;;;;;20432835;28;20044;-44
2021/10/26 14:25:21;;;;;;;4.82;0.95;;;14.40;99.90;;;;;;20441714;28;20055;-44
2021/10/26 14:35:28;;;;;;;0.47;0.20;;;14.50;99.90;;;;;;20418931;28;20071;-44
2021/10/26 15:05:58;;;;;;;1.70;0.10;;;14.40;99.90;;;;;;20426899;28;20643;-44
2021/10/26 15:15:59;;;;;;;2.17;0.20;;;14.30;99.90;;;;;;20415208;28;20394;-44
2021/10/26 15:36:20;;;;;;;1.15;0.65;;;14.30;99.90;;;;;;20398236;29;20059;-44
2021/10/26 15:46:22;;;;;;;0.70;0.10;;;14.30;99.90;;;;;;20407261;28;20062;-44
2021/10/26 15:56:23;;;;;;;8.40;0.30;;;14.20;99.90;;;;;;20429320;28;20054;-44
2021/10/26 16:06:24;;;;;;;2.20;0.15;;;14.20;99.90;;;;;;20390090;28;20234;-44
2021/10/26 16:16:33;;;;;;;1.35;0.30;;;14.30;99.90;;;;;;20423461;28;20046;-44
2021/10/26 16:26:53;;;;;;;6.32;0.80;;;14.10;99.90;;;;;;20417585;28;20509;-44
2021/10/26 16:36:58;;;;;;;2.13;0.50;;;14.00;99.90;;;;;;20407806;28;20083;-44
2021/10/26 16:57:06;;;;;;;2.60;1.05;;;14.00;99.90;;;;;;20423287;28;20047;-44
2021/10/26 17:07:08;;;;;;;2.13;0.98;;;14.00;99.90;;;;;;20418514;28;20511;-44
2021/10/26 17:17:09;;;;;;;3.10;1.40;;;13.80;99.90;;;;;;20417928;28;20663;-44
2021/10/26 17:27:10;;;;;;;4.50;2.13;;;14.00;99.90;;;;;;20414913;28;20028;-44
2021/10/26 17:37:11;;;;;;;3.88;1.70;;;14.00;99.90;;;;;;20427949;28;20054;-44
2021/10/26 17:47:12;;;;;;;6.13;1.67;;;14.00;99.90;;;;;;20427578;28;20051;-44
2021/10/26 17:57:14;;;;;;;3.25;1.40;;;14.10;99.90;;;;;;20419016;28;20178;-44
2021/10/26 18:07:15;;;;;;;4.63;2.08;;;14.10;99.90;;;;;;20393148;28;20047;-44
2021/10/26 18:17:17;;;;;;;5.05;2.15;;;14.10;99.90;;;;;;20408953;28;20059;-44
2021/10/26 18:27:18;;;;;;;3.92;1.90;;;14.10;99.90;;;;;;20416075;28;20061;-43
2021/10/26 18:37:20;;;;;;;5.50;2.78;;;14.00;99.90;;;;;;20423786;28;20064;-43
2021/10/26 18:47:21;;;;;;;3.90;1.83;;;14.00;99.90;;;;;;20421695;28;20062;-44
2021/10/26 18:57:22;;;;;;;4.15;2.38;;;14.10;99.90;;;;;;20428537;28;20059;-44
2021/10/26 19:07:23;;;;;;;12.90;2.78;;;14.00;99.90;;;;;;20396710;28;20047;-44
2021/10/26 19:17:24;;;;;;;4.75;2.53;;;14.00;99.90;;;;;;20421988;28;20655;-44
2021/10/26 19:27:26;;;;;;;6.18;2.30;;;14.00;99.90;;;;;;20416082;28;20046;-44
2021/10/26 19:37:28;;;;;;;6.35;2.63;;;14.00;99.90;;;;;;20429662;28;20509;-44
2021/10/26 19:47:29;;;;;;;11.00;3.05;;;14.00;99.90;;;;;;20426873;28;20762;-44
2021/10/26 19:57:31;;;;;;;6.28;2.40;;;14.10;99.90;;;;;;20416465;28;20059;-44
2021/10/26 20:07:33;;;;;;;6.10;2.70;;;14.10;99.90;;;;;;20422416;28;20048;-44
2021/10/26 20:17:35;;;;;;;7.15;2.97;;;14.00;99.90;;;;;;20428864;28;20082;-44
2021/10/26 20:37:57;;;;;;;6.95;2.58;;;14.10;99.90;;;;;;20417142;28;20059;-44
2021/10/26 20:48:00;;;;;;;11.07;3.42;;;14.00;99.90;;;;;;20424967;28;20118;-44
2021/10/26 20:58:01;;;;;;;9.20;3.65;;;14.10;99.90;;;;;;20416468;28;20059;-44
2021/10/26 21:08:02;;;;;;;12.23;3.67;;;14.10;99.90;;;;;;20402727;28;20028;-44
2021/10/26 21:18:03;;;;;;;9.40;3.17;;;14.10;99.90;;;;;;20402737;29;20067;-44
2021/10/26 21:28:05;;;;;;;8.10;3.53;;;14.20;99.90;;;;;;20415602;28;20023;-44
2021/10/26 21:38:10;;;;;;;7.57;3.70;;;14.20;99.90;;;;;;20424092;28;20516;-44
2021/10/26 21:48:11;;;;;;;10.48;4.10;;;14.10;99.90;;;;;;20413764;28;20062;-44
2021/10/26 21:58:12;;;;;;;9.95;3.67;;;14.00;99.90;;;;;;20421840;28;20064;-44
2021/10/26 22:08:14;;;;;;;8.60;3.20;;;14.20;99.90;;;;;;20416443;28;20131;-44
2021/10/26 22:18:15;;;;;;;7.90;3.30;;;14.10;99.90;;;;;;20421652;28;20052;-44
2021/10/26 22:28:16;;;;;;;11.63;3.80;;;14.00;99.90;;;;;;20432844;28;21199;-44
2021/10/26 22:38:19;;;;;;;9.43;3.95;;;14.00;99.90;;;;;;20431072;28;20067;-44
2021/10/26 22:48:20;;;;;;;7.03;2.88;;;14.10;99.90;;;;;;20418972;28;20115;-44
2021/10/26 22:58:23;;;;;;;9.52;3.00;;;14.10;99.90;;;;;;20433599;28;20056;-44
2021/10/26 23:08:24;;;;;;;11.00;3.83;;;14.10;99.90;;;;;;20427999;28;20121;-44
2021/10/26 23:18:25;;;;;;;9.23;3.25;;;14.20;99.90;;;;;;20444677;28;20059;-44
2021/10/26 23:28:27;;;;;;;12.30;3.58;;;14.20;99.90;;;;;;20425185;28;20056;-44
2021/10/26 23:38:28;;;;;;;10.55;4.63;;;14.20;99.90;;;;;;20429090;28;20071;-44
2021/10/26 23:48:30;;;;;;;11.25;3.53;;;14.10;99.90;;;;;;20405948;28;20055;-44
2021/10/26 23:58:31;;;;;;;8.35;3.15;;;14.20;99.90;;;;;;20420009;28;20060;-44
